sensor_id;sensor_type;location;lat;lon;timestamp;pressure;altitude;pressure_sealevel;temperature;humidity
12759;BME280;20944;47.048;15.390;2023-01-13T00:00:34;97690.53;;;2.80;100.00
12759;BME280;20944;47.048;15.390;2023-01-13T00:03:04;97675.84;;;2.73;100.00
12759;BME280;20944;47.048;15.390;2023-01-13T00:05:32;97751.91;;;3.16;100.00
12759;BME280;20944;47.048;15.390;2023-01-13T00:08:01;97686.25;;;2.84;100.00
12759;BME280;20944;47.048;15.390;2023-01-13T00:10:31;97744.16;;;3.19;100.00
12759;BME280;20944;47.048;15.390;2023-01-13T00:13:02;97389.25;;;1.18;100.00
12759;BME280;20944;47.048;15.390;2023-01-13T00:15:31;97732.13;;;3.34;100.00
12759;BME280;20944;47.048;15.390;2023-01-13T00:17:59;97728.66;;;3.29;100.00
12759;BME280;20944;47.048;15.390;2023-01-13T00:20:27;97711.31;;;3.08;100.00
12759;BME280;20944;47.048;15.390;2023-01-13T00:22:55;97722.59;;;3.17;100.00
12759;BME280;20944;47.048;15.390;2023-01-13T00:25:25;97731.19;;;3.10;100.00
12759;BME280;20944;47.048;15.390;2023-01-13T00:27:54;97713.03;;;2.98;100.00
12759;BME280;20944;47.048;15.390;2023-01-13T00:30:23;97735.53;;;3.14;100.00
12759;BME280;20944;47.048;15.390;2023-01-13T00:32:51;97731.19;;;3.10;100.00
12759;BME280;20944;47.048;15.390;2023-01-13T00:35:20;97723.44;;;3.19;100.00
12759;BME280;20944;47.048;15.390;2023-01-13T00:37:48;97709.66;;;3.14;100.00
12759;BME280;20944;47.048;15.390;2023-01-13T00:40:16;97726.06;;;3.24;100.00
12759;BME280;20944;47.048;15.390;2023-01-13T00:42:44;97716.53;;;3.15;100.00
12759;BME280;20944;47.048;15.390;2023-01-13T00:45:32;97700.16;;;3.15;100.00
12759;BME280;20944;47.048;15.390;2023-01-13T00:48:00;97701.00;;;3.18;100.00
12759;BME280;20944;47.048;15.390;2023-01-13T00:50:28;97682.81;;;2.92;100.00
12759;BME280;20944;47.048;15.390;2023-01-13T00:52:58;97596.47;;;2.46;100.00
12759;BME280;20944;47.048;15.390;2023-01-13T00:55:29;97714.84;;;3.22;100.00
12759;BME280;20944;47.048;15.390;2023-01-13T00:57:58;97719.09;;;3.12;100.00
12759;BME280;20944;47.048;15.390;2023-01-13T01:00:29;97718.22;;;3.07;100.00
12759;BME280;20944;47.048;15.390;2023-01-13T01:02:59;97713.06;;;3.07;100.00
12759;BME280;20944;47.048;15.390;2023-01-13T01:05:27;97707.03;;;3.10;100.00
12759;BME280;20944;47.048;15.390;2023-01-13T01:07:55;97718.22;;;3.07;100.00
12759;BME280;20944;47.048;15.390;2023-01-13T01:10:24;97596.44;;;2.41;100.00
12759;BME280;20944;47.048;15.390;2023-01-13T01:12:52;97719.13;;;3.11;100.00
12759;BME280;20944;47.048;15.390;2023-01-13T01:15:20;97716.53;;;3.11;100.00
12759;BME280;20944;47.048;15.390;2023-01-13T01:17:48;97713.09;;;3.19;100.00
12759;BME280;20944;47.048;15.390;2023-01-13T01:20:18;97720.91;;;3.29;100.00
12759;BME280;20944;47.048;15.390;2023-01-13T01:22:46;97687.16;;;3.06;100.00
12759;BME280;20944;47.048;15.390;2023-01-13T01:25:14;97726.91;;;3.24;100.00
12759;BME280;20944;47.048;15.390;2023-01-13T01:27:42;97707.88;;;3.06;100.00
12759;BME280;20944;47.048;15.390;2023-01-13T01:30:12;97713.94;;;3.09;100.00
12759;BME280;20944;47.048;15.390;2023-01-13T01:32:40;97707.88;;;3.06;100.00
12759;BME280;20944;47.048;15.390;2023-01-13T01:35:08;97724.28;;;3.12;100.00
12759;BME280;20944;47.048;15.390;2023-01-13T01:37:38;97537.69;;;2.05;100.00
12759;BME280;20944;47.048;15.390;2023-01-13T01:40:07;97589.56;;;2.47;100.00
12759;BME280;20944;47.048;15.390;2023-01-13T01:42:36;97702.75;;;3.22;100.00
12759;BME280;20944;47.048;15.390;2023-01-13T01:45:22;97695.78;;;3.06;100.00
12759;BME280;20944;47.048;15.390;2023-01-13T01:47:54;97689.75;;;2.98;100.00
12759;BME280;20944;47.048;15.390;2023-01-13T01:50:24;97688.91;;;3.05;100.00
12759;BME280;20944;47.048;15.390;2023-01-13T01:52:56;97694.94;;;3.06;100.00
12759;BME280;20944;47.048;15.390;2023-01-13T01:55:29;97700.97;;;3.03;100.00
12759;BME280;20944;47.048;15.390;2023-01-13T01:58:05;97686.31;;;3.07;100.00
12759;BME280;20944;47.048;15.390;2023-01-13T02:00:34;97682.84;;;3.08;100.00
12759;BME280;20944;47.048;15.390;2023-01-13T02:03:03;97672.53;;;3.11;100.00
12759;BME280;20944;47.048;15.390;2023-01-13T02:05:33;97676.81;;;3.13;100.00
12759;BME280;20944;47.048;15.390;2023-01-13T02:08:04;97683.75;;;3.17;100.00
12759;BME280;20944;47.048;15.390;2023-01-13T02:10:34;97667.31;;;2.95;100.00
12759;BME280;20944;47.048;15.390;2023-01-13T02:13:04;97469.63;;;1.91;100.00
12759;BME280;20944;47.048;15.390;2023-01-13T02:15:38;97667.34;;;3.11;100.00
12759;BME280;20944;47.048;15.390;2023-01-13T02:18:37;97669.06;;;3.09;100.00
12759;BME280;20944;47.048;15.390;2023-01-13T02:24:41;97662.16;;;3.11;100.00
12759;BME280;20944;47.048;15.390;2023-01-13T02:30:41;97642.31;;;3.10;100.00
12759;BME280;20944;47.048;15.390;2023-01-13T02:33:40;97557.63;;;2.37;100.00
12759;BME280;20944;47.048;15.390;2023-01-13T02:36:16;97644.03;;;3.12;100.00
12759;BME280;20944;47.048;15.390;2023-01-13T02:38:50;97637.16;;;3.16;100.00
12759;BME280;20944;47.048;15.390;2023-01-13T02:41:25;97639.72;;;3.02;100.00
12759;BME280;20944;47.048;15.390;2023-01-13T02:44:14;97632.81;;;2.98;100.00
12759;BME280;20944;47.048;15.390;2023-01-13T02:46:50;97517.13;;;2.36;100.00
12759;BME280;20944;47.048;15.390;2023-01-13T02:49:24;97622.47;;;3.04;100.00
12759;BME280;20944;47.048;15.390;2023-01-13T02:51:59;97588.81;;;2.84;100.00
12759;BME280;20944;47.048;15.390;2023-01-13T02:54:30;97600.88;;;2.94;100.00
12759;BME280;20944;47.048;15.390;2023-01-13T02:57:02;97598.28;;;2.93;100.00
12759;BME280;20944;47.048;15.390;2023-01-13T02:59:32;97630.25;;;3.10;100.00
12759;BME280;20944;47.048;15.390;2023-01-13T03:02:03;97632.84;;;3.16;100.00
12759;BME280;20944;47.048;15.390;2023-01-13T03:04:49;97602.63;;;3.11;100.00
12759;BME280;20944;47.048;15.390;2023-01-13T03:10:26;97411.13;;;2.14;100.00
12759;BME280;20944;47.048;15.390;2023-01-13T03:13:03;97605.22;;;3.18;100.00
12759;BME280;20944;47.048;15.390;2023-01-13T03:15:42;97605.22;;;3.14;100.00
12759;BME280;20944;47.048;15.390;2023-01-13T03:18:29;97612.13;;;3.19;100.00
12759;BME280;20944;47.048;15.390;2023-01-13T03:21:04;97614.72;;;3.19;100.00
12759;BME280;20944;47.048;15.390;2023-01-13T03:23:38;97604.38;;;3.16;100.00
12759;BME280;20944;47.048;15.390;2023-01-13T03:26:12;97607.81;;;3.18;100.00
12759;BME280;20944;47.048;15.390;2023-01-13T03:28:47;97602.63;;;3.18;100.00
12759;BME280;20944;47.048;15.390;2023-01-13T03:31:21;97612.13;;;3.25;100.00
12759;BME280;20944;47.048;15.390;2023-01-13T03:33:56;97579.31;;;3.00;100.00
12759;BME280;20944;47.048;15.390;2023-01-13T03:36:27;97630.25;;;3.18;100.00
12759;BME280;20944;47.048;15.390;2023-01-13T03:39:06;97668.22;;;3.14;100.00
12759;BME280;20944;47.048;15.390;2023-01-13T03:41:39;97618.19;;;3.31;100.00
12759;BME280;20944;47.048;15.390;2023-01-13T03:44:13;97559.50;;;2.97;100.00
12759;BME280;20944;47.048;15.390;2023-01-13T03:46:58;97625.09;;;3.29;100.00
12759;BME280;20944;47.048;15.390;2023-01-13T03:49:35;97603.50;;;2.96;100.00
12759;BME280;20944;47.048;15.390;2023-01-13T03:52:08;97591.44;;;3.09;100.00
12759;BME280;20944;47.048;15.390;2023-01-13T03:54:44;97601.78;;;3.22;100.00
12759;BME280;20944;47.048;15.390;2023-01-13T03:57:15;97592.28;;;3.24;100.00
12759;BME280;20944;47.048;15.390;2023-01-13T03:59:47;97584.53;;;3.28;100.00
12759;BME280;20944;47.048;15.390;2023-01-13T04:02:21;97586.22;;;3.39;100.00
12759;BME280;20944;47.048;15.390;2023-01-13T04:04:57;97595.72;;;3.33;100.00
12759;BME280;20944;47.048;15.390;2023-01-13T04:07:34;97590.56;;;3.17;100.00
12759;BME280;20944;47.048;15.390;2023-01-13T04:10:09;97603.50;;;3.08;100.00
12759;BME280;20944;47.048;15.390;2023-01-13T04:12:41;97617.28;;;3.07;100.00
12759;BME280;20944;47.048;15.390;2023-01-13T04:15:33;97606.94;;;3.10;100.00
12759;BME280;20944;47.048;15.390;2023-01-13T04:18:11;97607.81;;;3.09;100.00
12759;BME280;20944;47.048;15.390;2023-01-13T04:20:42;97600.91;;;3.10;100.00
12759;BME280;20944;47.048;15.390;2023-01-13T04:23:11;97594.03;;;3.22;100.00
12759;BME280;20944;47.048;15.390;2023-01-13T04:25:40;97543.97;;;2.99;100.00
12759;BME280;20944;47.048;15.390;2023-01-13T04:28:09;97580.22;;;3.23;100.00
12759;BME280;20944;47.048;15.390;2023-01-13T04:30:38;97479.25;;;2.62;100.00
12759;BME280;20944;47.048;15.390;2023-01-13T04:33:07;97508.56;;;3.01;100.00
12759;BME280;20944;47.048;15.390;2023-01-13T04:35:36;97575.88;;;3.30;100.00
12759;BME280;20944;47.048;15.390;2023-01-13T04:38:08;97503.41;;;2.84;100.00
12759;BME280;20944;47.048;15.390;2023-01-13T04:40:37;97575.00;;;3.20;100.00
12759;BME280;20944;47.048;15.390;2023-01-13T04:43:06;97582.78;;;3.19;100.00
12759;BME280;20944;47.048;15.390;2023-01-13T04:45:34;97580.19;;;3.20;100.00
12759;BME280;20944;47.048;15.390;2023-01-13T04:48:03;97573.31;;;3.22;100.00
12759;BME280;20944;47.048;15.390;2023-01-13T04:50:31;97572.44;;;3.25;100.00
12759;BME280;20944;47.048;15.390;2023-01-13T04:53:00;97562.09;;;3.46;100.00
12759;BME280;20944;47.048;15.390;2023-01-13T04:55:29;97542.22;;;3.13;100.00
12759;BME280;20944;47.048;15.390;2023-01-13T04:58:01;97587.09;;;3.32;100.00
12759;BME280;20944;47.048;15.390;2023-01-13T05:00:30;97582.78;;;3.20;100.00
12759;BME280;20944;47.048;15.390;2023-01-13T05:02:58;97585.38;;;3.16;100.00
12759;BME280;20944;47.048;15.390;2023-01-13T05:05:27;97585.41;;;3.22;100.00
12759;BME280;20944;47.048;15.390;2023-01-13T05:07:56;97581.91;;;3.20;100.00
12759;BME280;20944;47.048;15.390;2023-01-13T05:10:24;97538.78;;;2.85;100.00
12759;BME280;20944;47.048;15.390;2023-01-13T05:12:54;97603.50;;;3.22;100.00
12759;BME280;20944;47.048;15.390;2023-01-13T05:15:40;97600.06;;;3.29;100.00
12759;BME280;20944;47.048;15.390;2023-01-13T05:18:27;97587.09;;;3.31;100.00
12759;BME280;20944;47.048;15.390;2023-01-13T05:20:56;97575.03;;;3.34;100.00
12759;BME280;20944;47.048;15.390;2023-01-13T05:23:24;97582.81;;;3.30;100.00
12759;BME280;20944;47.048;15.390;2023-01-13T05:26:10;97576.75;;;3.21;100.00
12759;BME280;20944;47.048;15.390;2023-01-13T05:28:40;97563.81;;;3.12;100.00
12759;BME280;20944;47.048;15.390;2023-01-13T05:31:08;97489.59;;;2.55;100.00
12759;BME280;20944;47.048;15.390;2023-01-13T05:33:37;97579.31;;;3.00;100.00
12759;BME280;20944;47.048;15.390;2023-01-13T05:36:06;97576.75;;;3.03;100.00
12759;BME280;20944;47.048;15.390;2023-01-13T05:38:35;97531.84;;;2.89;100.00
12759;BME280;20944;47.048;15.390;2023-01-13T05:41:03;97565.53;;;3.09;100.00
12759;BME280;20944;47.048;15.390;2023-01-13T05:43:50;97588.84;;;3.22;100.00
12759;BME280;20944;47.048;15.390;2023-01-13T05:46:18;97594.88;;;3.15;100.00
12759;BME280;20944;47.048;15.390;2023-01-13T05:48:46;97593.16;;;3.02;100.00
12759;BME280;20944;47.048;15.390;2023-01-13T05:51:14;97572.41;;;2.99;100.00
12759;BME280;20944;47.048;15.390;2023-01-13T05:53:43;97543.06;;;2.88;100.00
12759;BME280;20944;47.048;15.390;2023-01-13T05:56:11;97571.56;;;3.03;100.00
12759;BME280;20944;47.048;15.390;2023-01-13T05:58:39;97563.78;;;3.06;100.00
12759;BME280;20944;47.048;15.390;2023-01-13T06:01:09;97586.22;;;3.04;100.00
12759;BME280;20944;47.048;15.390;2023-01-13T06:03:37;97560.34;;;3.04;100.00
12759;BME280;20944;47.048;15.390;2023-01-13T06:06:06;97563.81;;;3.09;100.00
12759;BME280;20944;47.048;15.390;2023-01-13T06:08:35;97571.53;;;2.94;100.00
12759;BME280;20944;47.048;15.390;2023-01-13T06:11:05;97587.09;;;2.91;100.00
12759;BME280;20944;47.048;15.390;2023-01-13T06:13:34;97572.44;;;2.90;100.00
12759;BME280;20944;47.048;15.390;2023-01-13T06:16:02;97576.72;;;2.88;100.00
12759;BME280;20944;47.048;15.390;2023-01-13T06:18:32;97574.13;;;2.92;100.00
12759;BME280;20944;47.048;15.390;2023-01-13T06:21:00;97573.28;;;2.84;100.00
12759;BME280;20944;47.048;15.390;2023-01-13T06:23:31;97543.94;;;2.72;100.00
12759;BME280;20944;47.048;15.390;2023-01-13T06:26:05;97567.22;;;2.87;100.00
12759;BME280;20944;47.048;15.390;2023-01-13T06:28:37;97543.06;;;2.73;100.00
12759;BME280;20944;47.048;15.390;2023-01-13T06:31:06;97582.75;;;2.87;100.00
12759;BME280;20944;47.048;15.390;2023-01-13T06:33:38;97559.44;;;2.75;100.00
12759;BME280;20944;47.048;15.390;2023-01-13T06:36:11;97580.19;;;2.84;100.00
12759;BME280;20944;47.048;15.390;2023-01-13T06:38:43;97581.03;;;2.86;100.00
12759;BME280;20944;47.048;15.390;2023-01-13T06:41:13;97578.44;;;2.87;100.00
12759;BME280;20944;47.048;15.390;2023-01-13T06:43:42;97581.91;;;2.91;100.00
12759;BME280;20944;47.048;15.390;2023-01-13T06:46:09;97545.66;;;2.73;100.00
12759;BME280;20944;47.048;15.390;2023-01-13T06:48:39;97593.13;;;2.96;100.00
12759;BME280;20944;47.048;15.390;2023-01-13T06:51:07;97595.72;;;2.91;100.00
12759;BME280;20944;47.048;15.390;2023-01-13T06:53:36;97590.53;;;2.91;100.00
12759;BME280;20944;47.048;15.390;2023-01-13T06:56:04;97590.53;;;2.84;100.00
12759;BME280;20944;47.048;15.390;2023-01-13T06:58:32;97589.69;;;3.05;100.00
12759;BME280;20944;47.048;15.390;2023-01-13T07:01:00;97595.69;;;2.94;100.00
12759;BME280;20944;47.048;15.390;2023-01-13T07:03:29;97561.13;;;2.53;100.00
12759;BME280;20944;47.048;15.390;2023-01-13T07:05:59;97589.66;;;2.79;100.00
12759;BME280;20944;47.048;15.390;2023-01-13T07:08:27;97524.88;;;2.33;100.00
12759;BME280;20944;47.048;15.390;2023-01-13T07:10:56;97596.56;;;2.77;100.00
12759;BME280;20944;47.048;15.390;2023-01-13T07:13:24;97597.41;;;2.79;100.00
12759;BME280;20944;47.048;15.390;2023-01-13T07:16:10;97597.41;;;2.94;100.00
12759;BME280;20944;47.048;15.390;2023-01-13T07:18:38;97596.53;;;2.89;100.00
12759;BME280;20944;47.048;15.390;2023-01-13T07:21:09;97586.22;;;2.96;100.00
12759;BME280;20944;47.048;15.390;2023-01-13T07:23:40;97524.06;;;2.61;100.00
12759;BME280;20944;47.048;15.390;2023-01-13T07:26:09;97572.44;;;3.02;100.00
12759;BME280;20944;47.048;15.390;2023-01-13T07:28:38;97402.47;;;2.00;100.00
12759;BME280;20944;47.048;15.390;2023-01-13T07:31:12;97462.84;;;2.39;100.00
12759;BME280;20944;47.048;15.390;2023-01-13T07:33:41;97582.78;;;3.10;100.00
12759;BME280;20944;47.048;15.390;2023-01-13T07:36:11;97596.59;;;3.12;100.00
12759;BME280;20944;47.048;15.390;2023-01-13T07:38:40;97603.50;;;3.19;100.00
12759;BME280;20944;47.048;15.390;2023-01-13T07:41:11;97495.63;;;2.75;100.00
12759;BME280;20944;47.048;15.390;2023-01-13T07:43:57;97594.00;;;3.38;100.00
12759;BME280;20944;47.048;15.390;2023-01-13T07:46:26;97525.84;;;2.91;100.00
12759;BME280;20944;47.048;15.390;2023-01-13T07:49:02;97555.19;;;3.16;100.00
12759;BME280;20944;47.048;15.390;2023-01-13T07:51:31;97593.13;;;3.39;100.00
12759;BME280;20944;47.048;15.390;2023-01-13T07:54:02;97599.19;;;3.47;100.00
12759;BME280;20944;47.048;15.390;2023-01-13T07:56:30;97554.31;;;3.17;100.00
12759;BME280;20944;47.048;15.390;2023-01-13T07:58:59;97602.66;;;3.35;100.00
12759;BME280;20944;47.048;15.390;2023-01-13T08:01:27;97440.41;;;2.32;100.00
12759;BME280;20944;47.048;15.390;2023-01-13T08:03:57;97424.91;;;2.29;100.00
12759;BME280;20944;47.048;15.390;2023-01-13T08:06:27;97564.66;;;3.20;100.00
12759;BME280;20944;47.048;15.390;2023-01-13T08:08:55;97587.97;;;3.51;100.00
12759;BME280;20944;47.048;15.390;2023-01-13T08:11:23;97584.50;;;3.57;100.00
12759;BME280;20944;47.048;15.390;2023-01-13T08:13:54;97543.09;;;3.35;100.00
12759;BME280;20944;47.048;15.390;2023-01-13T08:16:24;97587.09;;;3.61;100.00
12759;BME280;20944;47.048;15.390;2023-01-13T08:18:52;97548.25;;;3.38;100.00
12759;BME280;20944;47.048;15.390;2023-01-13T08:21:20;97587.94;;;3.74;100.00
12759;BME280;20944;47.048;15.390;2023-01-13T08:23:50;97589.69;;;3.72;100.00
12759;BME280;20944;47.048;15.390;2023-01-13T08:26:18;97601.75;;;3.70;100.00
12759;BME280;20944;47.048;15.390;2023-01-13T08:28:46;97574.16;;;3.50;100.00
12759;BME280;20944;47.048;15.390;2023-01-13T08:31:15;97568.09;;;3.51;100.00
12759;BME280;20944;47.048;15.390;2023-01-13T08:33:45;97581.06;;;3.59;100.00
12759;BME280;20944;47.048;15.390;2023-01-13T08:36:14;97575.84;;;3.64;100.00
12759;BME280;20944;47.048;15.390;2023-01-13T08:38:44;97587.06;;;3.79;100.00
12759;BME280;20944;47.048;15.390;2023-01-13T08:41:15;97549.97;;;3.55;100.00
12759;BME280;20944;47.048;15.390;2023-01-13T08:44:04;97587.91;;;3.89;100.00
12759;BME280;20944;47.048;15.390;2023-01-13T08:46:35;97579.28;;;3.90;100.00
12759;BME280;20944;47.048;15.390;2023-01-13T08:49:03;97583.56;;;3.94;100.00
12759;BME280;20944;47.048;15.390;2023-01-13T08:51:31;97591.34;;;4.05;100.00
12759;BME280;20944;47.048;15.390;2023-01-13T08:54:00;97599.94;;;4.19;100.00
12759;BME280;20944;47.048;15.390;2023-01-13T08:56:30;97329.25;;;2.56;100.00
12759;BME280;20944;47.048;15.390;2023-01-13T08:59:01;97565.38;;;4.13;100.00
12759;BME280;20944;47.048;15.390;2023-01-13T09:01:29;97580.88;;;4.34;100.00
12759;BME280;20944;47.048;15.390;2023-01-13T09:03:58;97593.78;;;4.43;100.00
12759;BME280;20944;47.048;15.390;2023-01-13T09:06:26;97595.50;;;4.49;100.00
12759;BME280;20944;47.048;15.390;2023-01-13T09:08:54;97585.09;;;4.59;100.00
12759;BME280;20944;47.048;15.390;2023-01-13T09:11:26;97567.75;;;4.62;100.00
12759;BME280;20944;47.048;15.390;2023-01-13T09:14:17;97581.47;;;4.86;100.00
12759;BME280;20944;47.048;15.390;2023-01-13T09:16:46;97578.81;;;4.97;100.00
12759;BME280;20944;47.048;15.390;2023-01-13T09:19:14;97548.56;;;4.88;100.00
12759;BME280;20944;47.048;15.390;2023-01-13T09:21:43;97577.78;;;5.15;100.00
12759;BME280;20944;47.048;15.390;2023-01-13T09:24:11;97585.53;;;5.21;100.00
12759;BME280;20944;47.048;15.390;2023-01-13T09:26:39;97576.84;;;5.30;100.00
12759;BME280;20944;47.048;15.390;2023-01-13T09:29:07;97484.59;;;4.84;100.00
12759;BME280;20944;47.048;15.390;2023-01-13T09:31:37;97574.13;;;5.44;100.00
12759;BME280;20944;47.048;15.390;2023-01-13T09:34:11;97566.41;;;5.33;100.00
12759;BME280;20944;47.048;15.390;2023-01-13T09:36:58;97570.50;;;5.63;100.00
12759;BME280;20944;47.048;15.390;2023-01-13T09:39:26;97553.22;;;5.56;100.00
12759;BME280;20944;47.048;15.390;2023-01-13T09:41:56;97565.34;;;5.60;100.00
12759;BME280;20944;47.048;15.390;2023-01-13T09:44:48;97557.50;;;5.61;100.00
12759;BME280;20944;47.048;15.390;2023-01-13T09:47:22;97537.59;;;5.59;100.00
12759;BME280;20944;47.048;15.390;2023-01-13T09:49:53;97546.94;;;5.77;100.00
12759;BME280;20944;47.048;15.390;2023-01-13T09:52:26;97539.94;;;5.86;100.00
12759;BME280;20944;47.048;15.390;2023-01-13T09:54:59;97396.94;;;5.11;100.00
12759;BME280;20944;47.048;15.390;2023-01-13T09:57:33;97526.88;;;5.94;100.00
12759;BME280;20944;47.048;15.390;2023-01-13T10:00:10;97408.84;;;5.30;100.00
12759;BME280;20944;47.048;15.390;2023-01-13T10:02:58;97493.09;;;5.92;100.00
12759;BME280;20944;47.048;15.390;2023-01-13T10:05:34;97507.56;;;6.13;100.00
12759;BME280;20944;47.048;15.390;2023-01-13T10:08:09;97497.22;;;6.10;100.00
12759;BME280;20944;47.048;15.390;2023-01-13T10:10:44;97470.63;;;5.85;100.00
12759;BME280;20944;47.048;15.390;2023-01-13T10:13:19;97478.78;;;6.29;100.00
12759;BME280;20944;47.048;15.390;2023-01-13T10:16:11;97487.38;;;6.35;100.00
12759;BME280;20944;47.048;15.390;2023-01-13T10:18:53;97478.63;;;6.38;100.00
12759;BME280;20944;47.048;15.390;2023-01-13T10:21:40;97480.34;;;6.42;100.00
12759;BME280;20944;47.048;15.390;2023-01-13T10:24:15;97492.50;;;6.41;100.00
12759;BME280;20944;47.048;15.390;2023-01-13T10:26:53;97492.56;;;6.35;100.00
12759;BME280;20944;47.048;15.390;2023-01-13T10:29:28;97490.94;;;6.27;100.00
12759;BME280;20944;47.048;15.390;2023-01-13T10:31:58;97474.56;;;6.18;100.00
12759;BME280;20944;47.048;15.390;2023-01-13T10:34:28;97422.19;;;5.75;100.00
12759;BME280;20944;47.048;15.390;2023-01-13T10:36:58;97465.84;;;6.22;100.00
12759;BME280;20944;47.048;15.390;2023-01-13T10:39:38;97463.09;;;6.33;100.00
12759;BME280;20944;47.048;15.390;2023-01-13T10:42:12;97468.06;;;6.50;100.00
12759;BME280;20944;47.048;15.390;2023-01-13T10:44:49;97465.50;;;6.48;100.00
12759;BME280;20944;47.048;15.390;2023-01-13T10:47:24;97455.78;;;6.58;100.00
12759;BME280;20944;47.048;15.390;2023-01-13T10:50:17;97453.81;;;6.72;100.00
12759;BME280;20944;47.048;15.390;2023-01-13T10:52:58;97453.59;;;6.88;100.00
12759;BME280;20944;47.048;15.390;2023-01-13T10:55:29;97463.03;;;6.95;100.00
12759;BME280;20944;47.048;15.390;2023-01-13T10:58:11;97448.34;;;6.92;100.00
12759;BME280;20944;47.048;15.390;2023-01-13T11:00:39;97452.47;;;7.04;100.00
12759;BME280;20944;47.048;15.390;2023-01-13T11:03:16;97459.31;;;7.11;100.00
12759;BME280;20944;47.048;15.390;2023-01-13T11:05:54;97448.53;;;7.31;100.00
12759;BME280;20944;47.048;15.390;2023-01-13T11:08:24;97418.22;;;7.25;100.00
12759;BME280;20944;47.048;15.390;2023-01-13T11:10:54;97398.16;;;7.29;100.00
12759;BME280;20944;47.048;15.390;2023-01-13T11:13:29;97446.84;;;7.75;100.00
12759;BME280;20944;47.048;15.390;2023-01-13T11:16:02;97449.88;;;7.97;100.00
12759;BME280;20944;47.048;15.390;2023-01-13T11:18:39;97427.19;;;8.00;100.00
12759;BME280;20944;47.048;15.390;2023-01-13T11:21:21;97412.69;;;8.27;100.00
12759;BME280;20944;47.048;15.390;2023-01-13T11:24:00;97398.34;;;8.47;100.00
12759;BME280;20944;47.048;15.390;2023-01-13T11:26:42;97432.72;;;9.03;100.00
12759;BME280;20944;47.048;15.390;2023-01-13T11:29:17;97412.28;;;9.18;100.00
12759;BME280;20944;47.048;15.390;2023-01-13T11:31:52;97433.13;;;9.54;81.56
12759;BME280;20944;47.048;15.390;2023-01-13T11:34:27;97429.78;;;9.80;82.05
12759;BME280;20944;47.048;15.390;2023-01-13T11:37:00;97429.75;;;10.13;81.12
12759;BME280;20944;47.048;15.390;2023-01-13T11:39:41;97427.81;;;10.19;80.00
12759;BME280;20944;47.048;15.390;2023-01-13T11:42:17;97413.72;;;10.23;75.54
12759;BME280;20944;47.048;15.390;2023-01-13T11:44:52;97407.50;;;10.27;73.00
12759;BME280;20944;47.048;15.390;2023-01-13T11:47:25;97403.91;;;10.32;73.44
12759;BME280;20944;47.048;15.390;2023-01-13T11:49:54;97237.47;;;9.37;74.44
12759;BME280;20944;47.048;15.390;2023-01-13T11:52:30;97407.56;;;10.54;70.86
12759;BME280;20944;47.048;15.390;2023-01-13T11:55:20;97375.47;;;10.47;69.40
12759;BME280;20944;47.048;15.390;2023-01-13T11:58:10;97379.16;;;10.68;67.87
12759;BME280;20944;47.048;15.390;2023-01-13T12:01:07;97393.59;;;10.82;68.99
12759;BME280;20944;47.048;15.390;2023-01-13T12:03:47;97372.91;;;10.46;68.46
12759;BME280;20944;47.048;15.390;2023-01-13T12:06:21;97394.84;;;10.42;69.02
12759;BME280;20944;47.048;15.390;2023-01-13T12:09:15;97394.63;;;10.20;70.72
12759;BME280;20944;47.048;15.390;2023-01-13T12:11:57;97381.09;;;10.06;71.33
12759;BME280;20944;47.048;15.390;2023-01-13T12:17:58;97322.59;;;9.48;73.07
12759;BME280;20944;47.048;15.390;2023-01-13T12:20:35;97367.69;;;9.87;72.90
12759;BME280;20944;47.048;15.390;2023-01-13T12:23:16;97368.38;;;9.92;72.17
12759;BME280;20944;47.048;15.390;2023-01-13T12:25:52;97316.06;;;9.62;72.74
12759;BME280;20944;47.048;15.390;2023-01-13T12:28:25;97303.34;;;9.50;71.73
12759;BME280;20944;47.048;15.390;2023-01-13T12:30:58;97349.63;;;9.78;72.14
12759;BME280;20944;47.048;15.390;2023-01-13T12:33:36;97330.69;;;9.69;73.44
12759;BME280;20944;47.048;15.390;2023-01-13T12:36:10;97350.34;;;9.83;74.58
12759;BME280;20944;47.048;15.390;2023-01-13T12:38:46;97335.28;;;9.91;74.69
12759;BME280;20944;47.048;15.390;2023-01-13T12:41:26;97334.38;;;9.92;73.62
12759;BME280;20944;47.048;15.390;2023-01-13T12:43:57;97325.09;;;9.82;73.23
12759;BME280;20944;47.048;15.390;2023-01-13T12:46:47;97139.88;;;8.78;73.28
12759;BME280;20944;47.048;15.390;2023-01-13T12:49:21;97327.09;;;10.02;73.98
12759;BME280;20944;47.048;15.390;2023-01-13T12:52:17;97330.56;;;10.02;73.14
12759;BME280;20944;47.048;15.390;2023-01-13T12:55:16;97332.41;;;10.00;72.69
12759;BME280;20944;47.048;15.390;2023-01-13T12:58:15;97269.44;;;9.47;73.48
12759;BME280;20944;47.048;15.390;2023-01-13T13:00:59;97330.34;;;9.80;73.30
12759;BME280;20944;47.048;15.390;2023-01-13T13:03:30;97342.13;;;9.65;74.00
12759;BME280;20944;47.048;15.390;2023-01-13T13:06:15;97322.00;;;9.38;73.64
12759;BME280;20944;47.048;15.390;2023-01-13T13:09:00;97342.22;;;9.31;74.97
12759;BME280;20944;47.048;15.390;2023-01-13T13:11:36;97341.44;;;9.28;75.82
12759;BME280;20944;47.048;15.390;2023-01-13T13:15:00;97348.72;;;9.16;76.56
12759;BME280;20944;47.048;15.390;2023-01-13T13:17:44;97343.06;;;9.01;77.68
12759;BME280;20944;47.048;15.390;2023-01-13T13:20:54;97356.97;;;9.01;78.19
12759;BME280;20944;47.048;15.390;2023-01-13T13:23:37;97233.78;;;8.14;80.03
12759;BME280;20944;47.048;15.390;2023-01-13T13:26:19;97351.41;;;8.81;81.25
12759;BME280;20944;47.048;15.390;2023-01-13T13:29:26;97315.31;;;8.61;80.77
12759;BME280;20944;47.048;15.390;2023-01-13T13:34:58;97378.78;;;9.00;78.08
12759;BME280;20944;47.048;15.390;2023-01-13T13:37:41;97375.25;;;9.01;78.00
12759;BME280;20944;47.048;15.390;2023-01-13T13:40:38;97380.72;;;8.92;79.28